createdAt,value
2018-02-02T00:02:19.566Z,87.70
2018-02-02T00:04:47.187Z,87.60
2018-02-02T00:07:14.785Z,87.60
2018-02-02T00:09:42.337Z,87.80
2018-02-02T00:12:09.982Z,87.90
2018-02-02T00:14:37.555Z,87.90
2018-02-02T00:17:05.183Z,88.00
2018-02-02T00:19:32.755Z,88.10
2018-02-02T00:22:00.376Z,88.10
2018-02-02T00:24:27.980Z,88.10
2018-02-02T00:26:55.559Z,88.20
2018-02-02T00:29:23.157Z,88.20
2018-02-02T00:31:51.185Z,88.40
2018-02-02T00:34:18.725Z,88.40
2018-02-02T00:36:46.303Z,88.40
2018-02-02T00:39:13.902Z,88.40
2018-02-02T00:41:41.482Z,88.30
2018-02-02T00:44:09.055Z,88.30
2018-02-02T00:46:36.669Z,88.40
2018-02-02T00:49:04.287Z,88.60
2018-02-02T00:51:37.469Z,88.80
2018-02-02T00:54:05.039Z,88.90
2018-02-02T00:56:32.605Z,89.30
2018-02-02T00:59:00.235Z,89.30
2018-02-02T01:01:27.825Z,89.30
2018-02-02T01:03:55.411Z,89.40
2018-02-02T01:06:23.429Z,89.60
2018-02-02T01:08:51.031Z,89.60
2018-02-02T01:11:18.625Z,89.60
2018-02-02T01:13:46.185Z,89.60
2018-02-02T01:16:13.723Z,89.50
2018-02-02T01:18:41.359Z,89.40
2018-02-02T01:21:08.917Z,89.50
2018-02-02T01:23:36.535Z,89.50
2018-02-02T01:26:04.119Z,89.50
2018-02-02T01:28:31.677Z,89.40
2018-02-02T01:30:59.297Z,89.40
2018-02-02T01:33:26.935Z,89.50
2018-02-02T01:35:54.546Z,89.50
2018-02-02T01:38:22.117Z,89.50
2018-02-02T01:40:49.677Z,89.60
2018-02-02T01:43:17.333Z,89.70
2018-02-02T01:45:44.920Z,89.70
2018-02-02T01:48:21.267Z,89.80
2018-02-02T01:50:49.653Z,89.90
2018-02-02T01:53:17.229Z,89.90
2018-02-02T01:55:44.829Z,90.00
2018-02-02T01:58:12.434Z,89.90
2018-02-02T02:00:40.373Z,89.80
2018-02-02T02:03:07.959Z,89.80
2018-02-02T02:05:35.510Z,89.80
2018-02-02T02:08:03.068Z,89.80
2018-02-02T02:10:30.617Z,89.70
2018-02-02T02:12:58.211Z,89.60
2018-02-02T02:15:25.799Z,89.50
2018-02-02T02:17:53.373Z,89.40
2018-02-02T02:20:20.945Z,89.30
2018-02-02T02:22:48.585Z,88.90
2018-02-02T02:25:16.175Z,89.20
2018-02-02T02:27:43.769Z,89.20
2018-02-02T02:30:11.357Z,89.20
2018-02-02T02:32:38.932Z,89.20
2018-02-02T02:35:06.533Z,89.30
2018-02-02T02:37:34.103Z,89.50
2018-02-02T02:40:01.688Z,90.10
2018-02-02T02:42:29.266Z,90.20
2018-02-02T02:44:56.854Z,90.20
2018-02-02T02:47:24.848Z,90.30
2018-02-02T02:49:52.491Z,90.30
2018-02-02T02:52:20.110Z,90.40
2018-02-02T02:54:47.693Z,90.40
2018-02-02T02:57:15.278Z,90.50
2018-02-02T02:59:42.897Z,90.60
2018-02-02T03:02:10.466Z,90.90
2018-02-02T03:04:38.110Z,91.00
2018-02-02T03:07:05.707Z,90.80
2018-02-02T03:09:33.325Z,89.90
2018-02-02T03:12:00.882Z,89.90
2018-02-02T03:14:28.511Z,89.80
2018-02-02T03:16:56.125Z,89.70
2018-02-02T03:19:23.701Z,89.60
2018-02-02T03:21:51.277Z,89.60
2018-02-02T03:24:18.878Z,89.80
2018-02-02T03:26:46.429Z,89.90
2018-02-02T03:29:14.049Z,90.00
2018-02-02T03:31:41.678Z,90.10
2018-02-02T03:34:09.637Z,90.10
2018-02-02T03:36:37.217Z,90.10
2018-02-02T03:39:05.553Z,90.40
2018-02-02T03:41:33.135Z,90.30
2018-02-02T03:44:00.737Z,90.50
2018-02-02T03:46:28.337Z,90.60
2018-02-02T03:48:55.976Z,90.60
2018-02-02T03:51:23.556Z,90.70
2018-02-02T03:53:51.110Z,90.50
2018-02-02T03:56:18.764Z,90.60
2018-02-02T03:58:46.706Z,90.60
2018-02-02T04:01:14.323Z,90.60
2018-02-02T04:03:42.258Z,90.80
2018-02-02T04:06:09.868Z,90.80
2018-02-02T04:08:37.460Z,90.90
2018-02-02T04:11:05.049Z,91.00
2018-02-02T04:13:32.665Z,90.90
2018-02-02T04:16:00.283Z,90.80
2018-02-02T04:18:27.838Z,90.70
2018-02-02T04:20:55.430Z,90.70
2018-02-02T04:23:23.014Z,90.60
2018-02-02T04:25:50.634Z,90.70
2018-02-02T04:28:18.227Z,90.70
2018-02-02T04:30:45.797Z,90.80
2018-02-02T04:33:13.388Z,90.90
2018-02-02T04:35:53.829Z,91.00
2018-02-02T04:38:21.438Z,91.00
2018-02-02T04:40:49.082Z,91.00
2018-02-02T04:43:16.662Z,90.80
2018-02-02T04:45:44.267Z,90.40
2018-02-02T04:48:11.838Z,90.00
2018-02-02T04:50:39.425Z,89.70
2018-02-02T04:53:07.007Z,88.90
2018-02-02T04:55:34.606Z,88.20
2018-02-02T04:58:02.218Z,87.90
2018-02-02T05:00:29.793Z,87.30
2018-02-02T05:02:57.415Z,87.30
2018-02-02T05:05:24.985Z,87.20
2018-02-02T05:07:52.604Z,87.20
2018-02-02T05:10:20.193Z,87.70
2018-02-02T05:12:47.786Z,87.70
2018-02-02T05:15:15.333Z,87.90
2018-02-02T05:17:42.907Z,88.30
2018-02-02T05:20:10.453Z,88.60
2018-02-02T05:22:38.078Z,88.90
2018-02-02T05:25:05.655Z,89.40
2018-02-02T05:27:33.343Z,89.50
2018-02-02T05:30:00.929Z,89.80
2018-02-02T05:32:28.543Z,90.00
2018-02-02T05:34:56.100Z,90.10
2018-02-02T05:37:23.700Z,90.20
2018-02-02T05:39:51.302Z,90.30
2018-02-02T05:42:18.914Z,90.40
2018-02-02T05:44:46.522Z,90.60
2018-02-02T05:47:14.134Z,90.60
2018-02-02T05:49:41.698Z,90.60
2018-02-02T05:52:09.253Z,90.60
2018-02-02T05:54:36.819Z,90.70
2018-02-02T05:57:04.381Z,90.70
2018-02-02T05:59:31.994Z,90.80
2018-02-02T06:02:00.176Z,91.30
2018-02-02T06:04:27.817Z,91.20
2018-02-02T06:06:55.514Z,91.10
2018-02-02T06:09:23.109Z,91.00
2018-02-02T06:11:51.098Z,91.20
2018-02-02T06:14:18.702Z,91.20
2018-02-02T06:16:46.294Z,91.20
2018-02-02T06:19:25.503Z,91.10
2018-02-02T06:21:53.071Z,91.10
2018-02-02T06:24:20.666Z,91.70
2018-02-02T06:26:48.258Z,91.40
2018-02-02T06:29:15.915Z,91.20
2018-02-02T06:31:43.500Z,91.20
2018-02-02T06:34:11.094Z,91.30
2018-02-02T06:36:38.696Z,91.70
2018-02-02T06:39:06.326Z,91.80
2018-02-02T06:41:33.874Z,91.80
2018-02-02T06:44:01.840Z,91.70
2018-02-02T06:46:29.462Z,91.60
2018-02-02T06:48:57.061Z,91.60
2018-02-02T06:51:24.644Z,91.60
2018-02-02T06:53:52.242Z,91.60
2018-02-02T06:56:19.789Z,91.80
2018-02-02T06:58:47.603Z,91.80
2018-02-02T07:01:15.153Z,91.80
2018-02-02T07:03:42.760Z,91.80
2018-02-02T07:06:10.328Z,91.80
2018-02-02T07:08:37.967Z,91.70
2018-02-02T07:11:05.549Z,91.70
2018-02-02T07:13:33.125Z,91.70
2018-02-02T07:16:00.685Z,91.80
2018-02-02T07:18:28.531Z,91.90
2018-02-02T07:20:56.102Z,91.90
2018-02-02T07:23:23.729Z,91.90
2018-02-02T07:25:51.302Z,91.70
2018-02-02T07:28:18.905Z,91.60
2018-02-02T07:30:46.481Z,91.60
2018-02-02T07:33:14.043Z,91.30
2018-02-02T07:35:41.657Z,91.10
2018-02-02T07:38:09.214Z,90.50
2018-02-02T07:40:36.818Z,90.10
2018-02-02T07:43:04.381Z,89.50
2018-02-02T07:45:31.970Z,88.80
2018-02-02T07:47:59.510Z,88.50
2018-02-02T07:50:27.961Z,88.20
2018-02-02T07:52:55.545Z,87.00
2018-02-02T07:55:23.141Z,86.20
2018-02-02T07:57:50.773Z,84.50
2018-02-02T08:00:18.356Z,83.90
2018-02-02T08:02:46.331Z,83.90
2018-02-02T08:05:13.950Z,83.90
2018-02-02T08:07:41.506Z,83.60
2018-02-02T08:10:09.095Z,81.50
2018-02-02T08:12:36.665Z,81.90
2018-02-02T08:15:04.270Z,80.70
2018-02-02T08:17:31.887Z,80.60
2018-02-02T08:19:59.484Z,80.70
2018-02-02T08:22:27.089Z,80.30
2018-02-02T08:24:55.291Z,80.50
2018-02-02T08:27:22.887Z,80.10
2018-02-02T08:29:50.510Z,80.00
2018-02-02T08:32:18.470Z,79.40
2018-02-02T08:34:46.072Z,79.40
2018-02-02T08:37:13.657Z,79.40
2018-02-02T08:39:41.247Z,80.10
2018-02-02T08:42:09.202Z,80.10
2018-02-02T08:44:36.769Z,80.10
2018-02-02T08:47:04.752Z,79.80
2018-02-02T08:49:32.337Z,79.80
2018-02-02T08:51:59.905Z,79.70
2018-02-02T08:54:27.731Z,78.70
2018-02-02T08:56:55.298Z,78.70
2018-02-02T08:59:22.900Z,78.50
2018-02-02T09:01:56.058Z,78.50
2018-02-02T09:04:23.618Z,79.20
2018-02-02T09:06:51.271Z,78.70
2018-02-02T09:09:18.894Z,78.10
2018-02-02T09:11:46.484Z,78.40
2018-02-02T09:14:14.071Z,78.20
2018-02-02T09:16:41.662Z,78.10
2018-02-02T09:19:09.209Z,77.10
2018-02-02T09:21:36.818Z,77.80
2018-02-02T09:24:04.389Z,78.20
2018-02-02T09:26:31.983Z,78.20
2018-02-02T09:28:59.515Z,77.40
2018-02-02T09:31:27.092Z,78.10
2018-02-02T09:33:54.690Z,77.60
2018-02-02T09:36:22.590Z,78.10
2018-02-02T09:38:50.163Z,77.80
2018-02-02T09:41:17.749Z,78.00
2018-02-02T09:43:45.379Z,77.80
2018-02-02T09:46:12.964Z,77.80
2018-02-02T09:48:40.581Z,77.60
2018-02-02T09:51:08.158Z,77.20
2018-02-02T09:53:35.741Z,78.00
2018-02-02T09:56:03.293Z,77.90
2018-02-02T09:58:30.897Z,78.70
2018-02-02T10:00:58.917Z,78.80
2018-02-02T10:03:26.541Z,78.90
2018-02-02T10:05:54.124Z,79.80
2018-02-02T10:08:21.744Z,80.00
2018-02-02T10:10:49.293Z,80.20
2018-02-02T10:13:16.875Z,80.70
2018-02-02T10:15:44.484Z,81.00
2018-02-02T10:18:12.057Z,81.30
2018-02-02T10:20:39.599Z,81.70
2018-02-02T10:23:07.171Z,81.30
2018-02-02T10:25:34.744Z,81.20
2018-02-02T10:28:02.741Z,80.90
2018-02-02T10:30:30.282Z,80.90
2018-02-02T10:32:57.866Z,81.10
2018-02-02T10:35:25.432Z,80.60
2018-02-02T10:37:53.017Z,80.30
2018-02-02T10:40:20.606Z,81.10
2018-02-02T10:42:48.209Z,80.10
2018-02-02T10:45:15.841Z,79.80
2018-02-02T10:47:43.424Z,81.20
2018-02-02T10:50:10.983Z,80.90
2018-02-02T10:52:38.579Z,80.80
2018-02-02T10:55:06.175Z,80.20
2018-02-02T10:57:33.759Z,80.70
2018-02-02T11:00:01.318Z,79.70
2018-02-02T11:02:34.613Z,79.50
2018-02-02T11:05:02.193Z,80.10
2018-02-02T11:07:29.850Z,79.80
2018-02-02T11:09:57.662Z,79.70
2018-02-02T11:12:25.264Z,80.10
2018-02-02T11:14:52.854Z,79.90
2018-02-02T11:17:20.446Z,80.30
2018-02-02T11:19:48.240Z,80.10
2018-02-02T11:22:15.790Z,80.60
2018-02-02T11:24:43.374Z,80.70
2018-02-02T11:27:10.924Z,80.70
2018-02-02T11:29:38.494Z,80.30
2018-02-02T11:32:06.026Z,80.30
2018-02-02T11:34:33.605Z,80.80
2018-02-02T11:37:01.149Z,80.30
2018-02-02T11:39:29.173Z,79.90
2018-02-02T11:41:56.726Z,80.00
2018-02-02T11:44:24.320Z,79.90
2018-02-02T11:46:51.977Z,80.60
2018-02-02T11:49:19.595Z,80.00
2018-02-02T11:51:47.183Z,80.20
2018-02-02T11:54:14.782Z,80.10
2018-02-02T11:56:42.329Z,80.60
2018-02-02T11:59:09.907Z,81.00
2018-02-02T12:01:37.535Z,81.40
2018-02-02T12:04:05.094Z,81.00
2018-02-02T12:06:32.642Z,80.80
2018-02-02T12:09:00.242Z,80.70
2018-02-02T12:11:28.060Z,80.60
2018-02-02T12:13:56.031Z,80.80
2018-02-02T12:16:23.613Z,80.30
2018-02-02T12:18:51.207Z,80.50
2018-02-02T12:21:18.788Z,80.90
2018-02-02T12:23:52.176Z,80.80
2018-02-02T12:26:25.302Z,80.50
2018-02-02T12:28:53.812Z,80.00
2018-02-02T12:31:27.073Z,80.30
2018-02-02T12:34:00.233Z,79.80
2018-02-02T12:36:28.714Z,80.00
2018-02-02T12:38:56.291Z,79.60
2018-02-02T12:41:23.881Z,80.10
2018-02-02T12:43:51.449Z,79.50
2018-02-02T12:46:19.064Z,80.10
2018-02-02T12:48:58.373Z,80.70
2018-02-02T12:51:25.940Z,80.10
2018-02-02T12:53:53.569Z,80.20
2018-02-02T12:56:21.167Z,80.60
2018-02-02T12:58:48.747Z,80.60
2018-02-02T13:01:16.344Z,80.50
2018-02-02T13:03:43.938Z,80.30
2018-02-02T13:06:11.514Z,80.70
2018-02-02T13:08:39.078Z,80.70
2018-02-02T13:11:06.662Z,80.90
2018-02-02T13:13:34.237Z,80.30
2018-02-02T13:16:02.805Z,80.30
2018-02-02T13:18:30.406Z,80.00
2018-02-02T13:20:58.008Z,80.80
2018-02-02T13:23:25.585Z,80.00
2018-02-02T13:25:53.212Z,80.00
2018-02-02T13:28:20.803Z,80.00
2018-02-02T13:30:48.392Z,80.70
2018-02-02T13:33:16.335Z,80.70
2018-02-02T13:35:43.887Z,80.70
2018-02-02T13:38:13.055Z,80.60
2018-02-02T13:40:40.917Z,81.00
2018-02-02T13:43:08.467Z,81.10
2018-02-02T13:45:36.039Z,81.10
2018-02-02T13:48:03.622Z,81.20
2018-02-02T13:50:31.204Z,81.30
2018-02-02T13:52:58.826Z,81.40
2018-02-02T13:55:26.572Z,81.20
2018-02-02T13:57:54.141Z,81.40
2018-02-02T14:00:21.707Z,81.10
2018-02-02T14:02:49.286Z,80.70
2018-02-02T14:05:16.905Z,81.10
2018-02-02T14:07:44.542Z,81.10
2018-02-02T14:10:12.117Z,81.40
2018-02-02T14:12:39.706Z,81.90
2018-02-02T14:15:07.243Z,81.70
2018-02-02T14:17:34.797Z,82.20
2018-02-02T14:20:02.348Z,82.10
2018-02-02T14:22:29.929Z,82.30
2018-02-02T14:24:57.506Z,82.60
2018-02-02T14:27:25.132Z,82.80
2018-02-02T14:29:52.665Z,83.10
2018-02-02T14:32:20.302Z,82.90
2018-02-02T14:34:47.922Z,82.70
2018-02-02T14:37:15.494Z,82.40
2018-02-02T14:39:43.055Z,82.40
2018-02-02T14:42:11.369Z,82.80
2018-02-02T14:44:38.914Z,82.80
2018-02-02T14:47:06.916Z,82.60
2018-02-02T14:49:35.122Z,82.60
2018-02-02T14:52:02.731Z,82.40
2018-02-02T14:54:31.412Z,82.00
2018-02-02T14:56:59.028Z,82.10
2018-02-02T14:59:26.971Z,81.60
2018-02-02T15:01:55.434Z,81.70
2018-02-02T15:04:23.050Z,81.30
2018-02-02T15:06:50.650Z,81.10
2018-02-02T15:09:18.232Z,81.10
2018-02-02T15:11:46.077Z,81.00
2018-02-02T15:14:13.942Z,81.20
2018-02-02T15:16:41.554Z,81.30
2018-02-02T15:19:09.757Z,81.20
2018-02-02T15:21:37.653Z,81.40
2018-02-02T15:24:05.249Z,81.30
2018-02-02T15:26:32.832Z,81.40
2018-02-02T15:29:00.430Z,81.70
2018-02-02T15:31:27.970Z,81.90
2018-02-02T15:33:55.591Z,81.20
2018-02-02T15:36:23.151Z,80.80
2018-02-02T15:38:50.801Z,81.40
2018-02-02T15:41:18.390Z,81.40
2018-02-02T15:43:46.546Z,81.10
2018-02-02T15:46:15.235Z,81.60
2018-02-02T15:48:42.823Z,81.90
2018-02-02T15:51:11.384Z,82.40
2018-02-02T15:53:39.493Z,83.20
2018-02-02T15:56:07.062Z,83.20
2018-02-02T15:58:34.831Z,83.40
2018-02-02T16:01:02.373Z,83.50
2018-02-02T16:03:29.971Z,83.50
2018-02-02T16:05:57.963Z,83.60
2018-02-02T16:08:26.476Z,83.60
2018-02-02T16:10:54.050Z,83.70
2018-02-02T16:13:21.673Z,83.90
2018-02-02T16:15:49.331Z,83.80
2018-02-02T16:18:16.994Z,83.70
2018-02-02T16:20:44.562Z,83.80
2018-02-02T16:23:12.174Z,83.80
2018-02-02T16:25:40.205Z,84.00
2018-02-02T16:28:07.806Z,84.00
2018-02-02T16:30:35.369Z,84.00
2018-02-02T16:33:02.925Z,84.20
2018-02-02T16:35:30.517Z,84.30
2018-02-02T16:37:58.126Z,84.30
2018-02-02T16:40:25.718Z,84.40
2018-02-02T16:42:59.798Z,84.30
2018-02-02T16:45:27.456Z,84.50
2018-02-02T16:47:55.001Z,84.40
2018-02-02T16:50:22.585Z,84.50
2018-02-02T16:52:50.145Z,84.60
2018-02-02T16:55:17.794Z,84.60
2018-02-02T16:57:45.381Z,85.00
2018-02-02T17:00:13.393Z,84.80
2018-02-02T17:02:40.963Z,84.80
2018-02-02T17:05:08.559Z,84.80
2018-02-02T17:07:36.163Z,84.80
2018-02-02T17:10:03.823Z,84.60
2018-02-02T17:12:31.412Z,84.40
2018-02-02T17:14:59.022Z,84.50
2018-02-02T17:17:26.644Z,84.40
2018-02-02T17:19:54.426Z,84.40
2018-02-02T17:22:21.986Z,84.50
2018-02-02T17:24:49.598Z,84.40
2018-02-02T17:27:17.242Z,84.30
2018-02-02T17:29:44.843Z,84.30
2018-02-02T17:32:12.458Z,84.30
2018-02-02T17:34:40.102Z,84.40
2018-02-02T17:37:07.884Z,84.10
2018-02-02T17:39:35.477Z,84.00
2018-02-02T17:42:03.086Z,83.50
2018-02-02T17:44:30.707Z,83.40
2018-02-02T17:46:58.261Z,82.90
2018-02-02T17:49:25.843Z,83.20
2018-02-02T17:51:53.454Z,82.60
2018-02-02T17:54:21.082Z,82.30
2018-02-02T17:56:48.656Z,82.80
2018-02-02T17:59:16.250Z,83.10
2018-02-02T18:01:47.830Z,82.40
2018-02-02T18:04:15.433Z,82.60
2018-02-02T18:06:43.016Z,81.60
2018-02-02T18:09:10.577Z,81.70
2018-02-02T18:11:38.198Z,81.60
2018-02-02T18:14:05.745Z,81.90
2018-02-02T18:16:33.330Z,82.00
2018-02-02T18:19:00.881Z,81.60
2018-02-02T18:21:28.496Z,81.40
2018-02-02T18:23:56.086Z,81.40
2018-02-02T18:26:23.653Z,80.90
2018-02-02T18:28:51.292Z,81.10
2018-02-02T18:31:18.877Z,80.80
2018-02-02T18:33:46.517Z,80.60
2018-02-02T18:36:14.121Z,80.50
2018-02-02T18:38:41.663Z,80.30
2018-02-02T18:41:09.274Z,80.50
2018-02-02T18:43:36.816Z,80.10
2018-02-02T18:46:04.446Z,80.10
2018-02-02T18:48:32.021Z,80.00
2018-02-02T18:50:59.593Z,79.80
2018-02-02T18:53:27.242Z,79.90
2018-02-02T18:55:54.845Z,79.90
2018-02-02T18:58:22.395Z,80.00
2018-02-02T19:00:50.062Z,79.90
2018-02-02T19:03:17.688Z,79.80
2018-02-02T19:05:45.275Z,80.00
2018-02-02T19:08:12.906Z,80.00
2018-02-02T19:10:40.549Z,80.20
2018-02-02T19:13:08.183Z,80.00
2018-02-02T19:15:35.729Z,80.20
2018-02-02T19:18:03.344Z,80.30
2018-02-02T19:20:30.964Z,80.50
2018-02-02T19:22:58.543Z,80.20
2018-02-02T19:25:26.114Z,80.30
2018-02-02T19:27:53.740Z,80.50
2018-02-02T19:30:21.315Z,80.30
2018-02-02T19:32:48.922Z,80.60
2018-02-02T19:35:16.471Z,80.50
2018-02-02T19:37:44.056Z,80.60
2018-02-02T19:40:11.691Z,80.60
2018-02-02T19:42:39.306Z,80.10
2018-02-02T19:45:07.120Z,79.90
2018-02-02T19:47:34.708Z,80.00
2018-02-02T19:50:02.856Z,79.80
2018-02-02T19:52:30.424Z,79.20
2018-02-02T19:54:57.990Z,79.70
2018-02-02T19:57:25.578Z,79.60
2018-02-02T19:59:53.202Z,79.40
2018-02-02T20:02:20.825Z,79.20
2018-02-02T20:04:48.554Z,79.40
2018-02-02T20:07:16.201Z,79.60
2018-02-02T20:09:43.786Z,79.90
2018-02-02T20:12:11.353Z,79.80
2018-02-02T20:14:40.523Z,79.80
2018-02-02T20:17:08.176Z,79.80
2018-02-02T20:19:35.789Z,79.90
2018-02-02T20:22:03.464Z,79.90
2018-02-02T20:24:31.077Z,79.90
2018-02-02T20:26:58.704Z,80.00
2018-02-02T20:29:26.370Z,79.80
2018-02-02T20:31:53.939Z,79.50
2018-02-02T20:34:21.557Z,79.50
2018-02-02T20:36:49.192Z,79.10
2018-02-02T20:39:17.010Z,79.20
2018-02-02T20:41:44.631Z,79.20
2018-02-02T20:44:13.186Z,79.40
2018-02-02T20:47:04.154Z,79.10
2018-02-02T20:49:33.114Z,79.20
2018-02-02T20:52:00.757Z,79.20
2018-02-02T20:54:29.724Z,79.40
2018-02-02T20:56:57.811Z,78.90
2018-02-02T20:59:25.793Z,79.10
2018-02-02T21:01:53.377Z,79.10
2018-02-02T21:04:21.135Z,79.10
2018-02-02T21:06:50.542Z,79.20
2018-02-02T21:09:18.157Z,79.20
2018-02-02T21:11:46.016Z,79.20
2018-02-02T21:14:13.919Z,79.40
2018-02-02T21:16:41.987Z,79.50
2018-02-02T21:19:09.922Z,79.50
2018-02-02T21:21:37.646Z,79.60
2018-02-02T21:24:05.465Z,79.60
2018-02-02T21:26:33.281Z,79.60
2018-02-02T21:29:00.848Z,80.00
2018-02-02T21:31:28.475Z,79.90
2018-02-02T21:33:56.103Z,80.20
2018-02-02T21:36:23.666Z,80.50
2018-02-02T21:38:51.648Z,80.90
2018-02-02T21:41:19.552Z,80.50
2018-02-02T21:43:47.334Z,80.70
2018-02-02T21:46:14.956Z,80.80
2018-02-02T21:48:42.957Z,80.90
2018-02-02T21:51:10.575Z,80.70
2018-02-02T21:53:38.497Z,80.80
2018-02-02T21:56:06.883Z,80.60
2018-02-02T21:58:34.480Z,80.90
2018-02-02T22:01:02.067Z,81.00
2018-02-02T22:03:29.635Z,80.90
2018-02-02T22:05:57.454Z,81.00
2018-02-02T22:08:25.106Z,81.00
2018-02-02T22:10:52.724Z,81.00
2018-02-02T22:13:20.282Z,80.90
2018-02-02T22:15:48.377Z,80.90
2018-02-02T22:18:16.134Z,80.90
2018-02-02T22:20:43.741Z,80.80
2018-02-02T22:23:11.682Z,80.90
2018-02-02T22:25:39.285Z,80.90
2018-02-02T22:28:06.918Z,81.10
2018-02-02T22:30:34.515Z,80.80
2018-02-02T22:33:02.156Z,80.90
2018-02-02T22:35:29.819Z,81.00
2018-02-02T22:37:57.469Z,81.20
2018-02-02T22:40:25.107Z,81.10
2018-02-02T22:42:52.737Z,80.90
2018-02-02T22:45:20.394Z,80.80
2018-02-02T22:47:47.991Z,80.50
2018-02-02T22:50:15.581Z,80.50
2018-02-02T22:52:43.149Z,80.50
2018-02-02T22:55:10.757Z,80.60
2018-02-02T22:57:38.325Z,80.70
2018-02-02T23:00:06.013Z,80.60
2018-02-02T23:02:33.634Z,80.80
2018-02-02T23:05:01.214Z,80.80
2018-02-02T23:07:28.828Z,80.80
2018-02-02T23:09:56.375Z,80.60
2018-02-02T23:12:23.981Z,80.70
2018-02-02T23:14:51.603Z,80.80
2018-02-02T23:17:19.220Z,80.60
2018-02-02T23:19:46.797Z,80.50
2018-02-02T23:22:14.428Z,80.50
2018-02-02T23:24:42.011Z,80.30
2018-02-02T23:27:09.648Z,80.60
2018-02-02T23:29:37.230Z,80.50
2018-02-02T23:32:04.867Z,80.70
2018-02-02T23:34:32.410Z,80.60
2018-02-02T23:37:00.002Z,80.50
2018-02-02T23:39:27.541Z,80.90
2018-02-02T23:41:55.162Z,80.70
2018-02-02T23:44:23.133Z,82.50
2018-02-02T23:46:50.736Z,82.50
2018-02-02T23:49:18.295Z,83.40
2018-02-02T23:51:45.893Z,84.20
2018-02-02T23:54:13.534Z,84.80
2018-02-02T23:56:41.117Z,85.20
2018-02-02T23:59:09.105Z,85.80
